createdAt,value
2023-01-11T00:00:40.365Z,5.62
2023-01-11T00:03:14.511Z,5.64
2023-01-11T00:05:48.231Z,5.68
2023-01-11T00:08:22.098Z,5.74
2023-01-11T00:10:57.427Z,5.78
2023-01-11T00:13:31.558Z,5.80
2023-01-11T00:16:09.253Z,5.84
2023-01-11T00:18:43.023Z,5.84
2023-01-11T00:21:16.892Z,5.85
2023-01-11T00:23:51.173Z,5.96
2023-01-11T00:26:26.265Z,5.95
2023-01-11T00:29:00.126Z,6.03
2023-01-11T00:31:34.763Z,6.09
2023-01-11T00:34:08.288Z,6.08
2023-01-11T00:36:42.147Z,6.09
2023-01-11T00:39:15.831Z,6.10
2023-01-11T00:42:08.765Z,6.07
2023-01-11T00:44:59.599Z,6.03
2023-01-11T00:47:51.157Z,6.01
2023-01-11T00:50:25.063Z,6.02
2023-01-11T00:53:00.222Z,6.00
2023-01-11T00:55:34.167Z,6.00
2023-01-11T00:58:09.351Z,5.99
2023-01-11T01:00:42.889Z,5.98
2023-01-11T01:03:16.744Z,6.02
2023-01-11T01:05:55.586Z,6.02
2023-01-11T01:08:29.253Z,5.96
2023-01-11T01:11:02.888Z,5.96
2023-01-11T01:13:55.440Z,5.98
2023-01-11T01:16:29.182Z,6.01
2023-01-11T01:19:03.056Z,6.00
2023-01-11T01:21:37.433Z,6.00
2023-01-11T01:24:11.939Z,6.00
2023-01-11T01:26:45.550Z,6.03
2023-01-11T01:29:20.734Z,6.07
2023-01-11T01:31:54.305Z,6.09
2023-01-11T01:34:28.229Z,6.09
2023-01-11T01:37:01.803Z,6.12
2023-01-11T01:39:35.683Z,6.12
2023-01-11T01:42:14.437Z,6.13
2023-01-11T01:44:57.861Z,6.15
2023-01-11T01:47:38.320Z,6.18
2023-01-11T01:50:17.132Z,6.26
2023-01-11T01:52:54.523Z,6.28
2023-01-11T01:55:32.568Z,6.32
2023-01-11T01:58:10.314Z,6.32
2023-01-11T02:00:47.039Z,6.33
2023-01-11T02:03:23.753Z,6.40
2023-01-11T02:05:57.563Z,6.41
2023-01-11T02:08:37.340Z,6.47
2023-01-11T02:11:28.414Z,6.50
2023-01-11T02:14:04.783Z,6.53
2023-01-11T02:16:39.951Z,6.59
2023-01-11T02:19:25.287Z,6.63
2023-01-11T02:22:18.465Z,6.69
2023-01-11T02:25:17.719Z,6.76
2023-01-11T02:28:09.193Z,6.81
2023-01-11T02:30:54.661Z,6.86
2023-01-11T02:33:38.708Z,6.91
2023-01-11T02:36:25.943Z,6.94
2023-01-11T02:39:12.260Z,7.01
2023-01-11T02:42:10.117Z,7.12
2023-01-11T02:45:03.454Z,7.19
2023-01-11T02:47:46.197Z,7.22
2023-01-11T02:50:26.232Z,7.26
2023-01-11T02:53:04.248Z,7.08
2023-01-11T02:55:42.678Z,6.99
2023-01-11T02:58:17.870Z,7.04
2023-01-11T03:00:55.640Z,7.19
2023-01-11T03:03:29.462Z,7.22
2023-01-11T03:06:06.153Z,7.31
2023-01-11T03:09:09.137Z,7.40
2023-01-11T03:12:15.481Z,7.34
2023-01-11T03:15:00.096Z,7.37
2023-01-11T03:17:46.244Z,7.44
2023-01-11T03:20:25.179Z,7.47
2023-01-11T03:23:12.955Z,7.53
2023-01-11T03:25:57.920Z,7.55
2023-01-11T03:28:37.950Z,7.53
2023-01-11T03:31:19.506Z,7.37
2023-01-11T03:34:01.462Z,7.40
2023-01-11T03:36:39.633Z,7.48
2023-01-11T03:39:21.582Z,7.49
2023-01-11T03:41:59.235Z,7.57
2023-01-11T03:44:40.533Z,7.62
2023-01-11T03:47:16.837Z,7.72
2023-01-11T03:49:55.732Z,7.79
2023-01-11T03:52:33.860Z,7.75
2023-01-11T03:55:11.017Z,7.74
2023-01-11T03:57:51.451Z,7.74
2023-01-11T04:00:27.028Z,7.79
2023-01-11T04:03:01.848Z,7.74
2023-01-11T04:05:39.638Z,7.76
2023-01-11T04:08:13.222Z,7.50
2023-01-11T04:10:47.129Z,7.52
2023-01-11T04:13:20.921Z,7.57
2023-01-11T04:15:55.214Z,7.56
2023-01-11T04:18:28.799Z,7.57
2023-01-11T04:21:03.951Z,7.54
2023-01-11T04:23:37.800Z,7.55
2023-01-11T04:26:12.024Z,7.57
2023-01-11T04:28:46.065Z,7.57
2023-01-11T04:31:20.096Z,7.70
2023-01-11T04:33:53.889Z,7.74
2023-01-11T04:36:31.135Z,7.78
2023-01-11T04:39:05.040Z,7.80
2023-01-11T04:41:56.991Z,7.82
2023-01-11T04:44:30.704Z,7.74
2023-01-11T04:47:04.576Z,7.86
2023-01-11T04:49:38.190Z,7.86
2023-01-11T04:52:14.688Z,7.92
2023-01-11T04:54:48.838Z,7.93
2023-01-11T04:57:23.114Z,7.92
2023-01-11T04:59:56.723Z,7.94
2023-01-11T05:02:30.518Z,7.99
2023-01-11T05:05:04.435Z,7.88
2023-01-11T05:07:40.965Z,7.97
2023-01-11T05:10:14.685Z,7.97
2023-01-11T05:12:48.567Z,7.98
2023-01-11T05:15:22.209Z,8.04
2023-01-11T05:17:56.186Z,8.07
2023-01-11T05:20:29.863Z,8.09
2023-01-11T05:23:05.359Z,8.08
2023-01-11T05:25:39.245Z,8.10
2023-01-11T05:28:13.114Z,8.09
2023-01-11T05:30:52.479Z,8.15
2023-01-11T05:33:26.367Z,8.21
2023-01-11T05:36:00.951Z,8.23
2023-01-11T05:38:36.155Z,8.31
2023-01-11T05:41:14.330Z,8.37
2023-01-11T05:44:08.425Z,8.36
2023-01-11T05:46:43.509Z,8.36
2023-01-11T05:49:17.393Z,8.37
2023-01-11T05:51:51.190Z,8.42
2023-01-11T05:54:26.433Z,8.46
2023-01-11T05:57:00.355Z,8.49
2023-01-11T05:59:34.185Z,8.55
2023-01-11T06:02:08.133Z,8.57
2023-01-11T06:04:42.107Z,8.61
2023-01-11T06:07:15.681Z,8.64
2023-01-11T06:09:50.821Z,8.67
2023-01-11T06:12:24.633Z,8.72
2023-01-11T06:14:58.704Z,8.72
2023-01-11T06:17:32.363Z,8.70
2023-01-11T06:20:07.579Z,8.73
2023-01-11T06:22:41.410Z,8.81
2023-01-11T06:25:16.792Z,8.82
2023-01-11T06:27:50.472Z,8.87
2023-01-11T06:30:25.918Z,8.96
2023-01-11T06:33:05.760Z,8.95
2023-01-11T06:35:41.416Z,8.96
2023-01-11T06:38:17.577Z,9.01
2023-01-11T06:40:58.131Z,9.02
2023-01-11T06:43:33.071Z,9.04
2023-01-11T06:46:10.401Z,9.06
2023-01-11T06:48:44.762Z,9.08
2023-01-11T06:51:18.589Z,9.13
2023-01-11T06:53:52.262Z,9.19
2023-01-11T06:56:27.509Z,9.17
2023-01-11T06:59:01.113Z,9.16
2023-01-11T07:01:35.270Z,9.20
2023-01-11T07:04:09.500Z,9.18
2023-01-11T07:06:43.678Z,9.21
2023-01-11T07:09:17.372Z,9.27
2023-01-11T07:11:52.824Z,9.28
2023-01-11T07:14:26.392Z,9.30
2023-01-11T07:17:00.934Z,9.32
2023-01-11T07:19:34.837Z,9.34
2023-01-11T07:22:08.764Z,9.38
2023-01-11T07:24:42.598Z,9.40
2023-01-11T07:27:18.071Z,9.42
2023-01-11T07:29:53.423Z,9.48
2023-01-11T07:32:28.268Z,9.45
2023-01-11T07:35:02.063Z,9.54
2023-01-11T07:37:38.585Z,9.49
2023-01-11T07:40:13.725Z,9.38
2023-01-11T07:43:08.281Z,9.52
2023-01-11T07:45:46.416Z,9.52
2023-01-11T07:48:35.079Z,9.56
2023-01-11T07:51:08.826Z,9.57
2023-01-11T07:53:42.733Z,9.59
2023-01-11T07:56:16.470Z,9.62
2023-01-11T07:58:51.683Z,9.59
2023-01-11T08:01:25.743Z,9.63
2023-01-11T08:03:59.655Z,9.65
2023-01-11T08:06:33.405Z,9.66
2023-01-11T08:09:07.866Z,9.65
2023-01-11T08:11:58.855Z,9.73
2023-01-11T08:14:42.978Z,9.65
2023-01-11T08:17:17.370Z,9.71
2023-01-11T08:19:51.165Z,9.64
2023-01-11T08:22:24.849Z,9.65
2023-01-11T08:24:58.761Z,9.65
2023-01-11T08:27:32.394Z,9.69
2023-01-11T08:30:09.195Z,9.74
2023-01-11T08:32:42.852Z,9.77
2023-01-11T08:35:16.865Z,9.79
2023-01-11T08:37:50.522Z,9.78
2023-01-11T08:40:25.531Z,9.72
2023-01-11T08:42:59.608Z,9.78
2023-01-11T08:45:35.113Z,9.76
2023-01-11T08:48:08.863Z,9.76
2023-01-11T08:50:44.929Z,9.81
2023-01-11T08:53:20.691Z,9.83
2023-01-11T08:55:54.736Z,9.88
2023-01-11T08:58:28.434Z,9.97
2023-01-11T09:01:04.051Z,9.94
2023-01-11T09:03:37.673Z,9.96
2023-01-11T09:06:11.555Z,10.03
2023-01-11T09:08:45.569Z,9.91
2023-01-11T09:11:37.152Z,9.89
2023-01-11T09:14:10.651Z,9.89
2023-01-11T09:16:45.754Z,9.91
2023-01-11T09:19:19.220Z,9.93
2023-01-11T09:21:53.436Z,9.91
2023-01-11T09:24:27.142Z,9.82
2023-01-11T09:27:01.668Z,9.78
2023-01-11T09:29:37.277Z,9.77
2023-01-11T09:32:12.943Z,9.77
2023-01-11T09:34:47.298Z,9.79
2023-01-11T09:37:22.686Z,9.74
2023-01-11T09:39:58.030Z,9.72
2023-01-11T09:42:36.419Z,9.64
2023-01-11T09:45:15.909Z,9.65
2023-01-11T09:47:54.512Z,9.67
2023-01-11T09:50:31.968Z,9.64
2023-01-11T09:53:09.706Z,9.60
2023-01-11T09:55:47.075Z,9.59
2023-01-11T09:58:41.950Z,9.64
2023-01-11T10:01:24.035Z,9.59
2023-01-11T10:04:16.450Z,9.63
2023-01-11T10:07:12.975Z,9.54
2023-01-11T10:18:37.851Z,9.43
2023-01-11T10:22:13.280Z,9.44
2023-01-11T10:24:50.422Z,9.53
2023-01-11T10:27:31.134Z,9.62
2023-01-11T10:30:33.315Z,9.64
2023-01-11T10:33:24.905Z,9.66
2023-01-11T10:36:14.799Z,9.52
2023-01-11T10:39:07.906Z,9.52
2023-01-11T10:41:52.426Z,9.55
2023-01-11T10:44:34.454Z,9.57
2023-01-11T10:47:16.290Z,9.55
2023-01-11T10:49:56.168Z,9.58
2023-01-11T10:52:41.415Z,9.59
2023-01-11T10:55:21.933Z,9.52
2023-01-11T10:58:05.351Z,9.43
2023-01-11T11:00:48.500Z,9.46
2023-01-11T11:03:39.720Z,9.45
2023-01-11T11:06:22.085Z,9.47
2023-01-11T11:09:05.530Z,9.41
2023-01-11T11:11:42.599Z,9.44
2023-01-11T11:14:24.796Z,9.52
2023-01-11T11:17:10.256Z,9.58
2023-01-11T11:19:43.982Z,9.67
2023-01-11T11:22:19.977Z,9.80
2023-01-11T11:25:01.928Z,9.61
2023-01-11T11:27:42.250Z,9.51
2023-01-11T11:30:28.859Z,9.61
2023-01-11T11:33:07.080Z,9.69
2023-01-11T11:35:43.939Z,9.64
2023-01-11T11:38:23.933Z,9.64
2023-01-11T11:41:04.989Z,9.60
2023-01-11T11:43:40.063Z,9.69
2023-01-11T11:46:25.229Z,9.74
2023-01-11T11:49:13.308Z,9.79
2023-01-11T11:51:49.208Z,9.82
2023-01-11T11:54:28.047Z,9.85
2023-01-11T11:57:15.638Z,9.86
2023-01-11T11:59:51.673Z,9.96
2023-01-11T12:02:30.155Z,9.98
2023-01-11T12:05:07.201Z,9.96
2023-01-11T12:07:54.724Z,9.96
2023-01-11T12:10:31.007Z,9.94
2023-01-11T12:13:28.675Z,9.74
2023-01-11T12:16:04.935Z,9.79
2023-01-11T12:18:43.436Z,9.62
2023-01-11T12:21:21.185Z,9.54
2023-01-11T12:24:10.717Z,9.55
2023-01-11T12:26:54.103Z,9.48
2023-01-11T12:29:51.569Z,9.49
2023-01-11T12:32:52.554Z,9.44
2023-01-11T12:35:41.904Z,9.56
2023-01-11T12:38:39.669Z,9.69
2023-01-11T12:41:47.798Z,9.74
2023-01-11T12:44:43.568Z,9.75
2023-01-11T12:47:39.729Z,9.85
2023-01-11T12:50:21.689Z,9.71
2023-01-11T12:53:15.539Z,9.70
2023-01-11T12:56:02.851Z,9.72
2023-01-11T12:58:44.246Z,9.67
2023-01-11T13:01:41.843Z,9.82
2023-01-11T13:04:52.193Z,9.84
2023-01-11T13:07:36.470Z,9.92
2023-01-11T13:10:22.989Z,9.88
2023-01-11T13:13:02.828Z,9.79
2023-01-11T13:15:45.187Z,9.78
2023-01-11T13:18:28.097Z,9.75
2023-01-11T13:21:13.023Z,9.65
2023-01-11T13:23:50.509Z,9.65
2023-01-11T13:26:26.502Z,9.75
2023-01-11T13:29:04.135Z,9.83
2023-01-11T13:31:38.574Z,9.91
2023-01-11T13:34:20.442Z,9.94
2023-01-11T13:36:58.441Z,9.57
2023-01-11T13:39:40.169Z,9.66
2023-01-11T13:42:18.175Z,9.53
2023-01-11T13:44:58.304Z,9.55
2023-01-11T13:47:38.433Z,9.50
2023-01-11T13:50:21.570Z,9.49
2023-01-11T13:53:03.985Z,9.48
2023-01-11T13:55:44.440Z,9.39
2023-01-11T13:58:25.466Z,9.37
2023-01-11T14:01:07.563Z,9.19
2023-01-11T14:03:47.785Z,9.15
2023-01-11T14:06:43.138Z,9.12
2023-01-11T14:09:31.200Z,9.05
2023-01-11T14:12:15.143Z,9.12
2023-01-11T14:15:11.970Z,9.11
2023-01-11T14:18:11.303Z,9.13
2023-01-11T14:20:51.596Z,9.14
2023-01-11T14:23:36.445Z,9.11
2023-01-11T14:26:34.125Z,9.09
2023-01-11T14:29:20.762Z,9.08
2023-01-11T14:32:11.074Z,9.13
2023-01-11T14:35:05.235Z,9.07
2023-01-11T14:38:07.298Z,9.04
2023-01-11T14:41:03.252Z,9.11
2023-01-11T14:44:06.150Z,9.13
2023-01-11T14:47:06.594Z,9.20
2023-01-11T14:49:58.587Z,9.12
2023-01-11T14:52:40.539Z,9.03
2023-01-11T14:55:22.000Z,8.94
2023-01-11T14:58:06.327Z,8.97
2023-01-11T15:01:11.530Z,9.03
2023-01-11T15:03:57.282Z,8.97
2023-01-11T15:06:32.637Z,9.01
2023-01-11T15:09:45.310Z,8.97
2023-01-11T15:12:20.507Z,8.90
2023-01-11T15:15:00.110Z,8.87
2023-01-11T15:17:52.325Z,8.84
2023-01-11T15:20:27.162Z,8.76
2023-01-11T15:23:02.743Z,8.72
2023-01-11T15:25:37.002Z,8.71
2023-01-11T15:28:52.371Z,8.67
2023-01-11T15:31:39.944Z,8.60
2023-01-11T15:34:41.506Z,8.56
2023-01-11T15:37:53.633Z,8.53
2023-01-11T15:40:30.064Z,8.52
2023-01-11T15:43:38.236Z,8.47
2023-01-11T15:46:55.797Z,8.48
2023-01-11T15:50:02.960Z,8.47
2023-01-11T15:53:26.402Z,8.42
2023-01-11T15:56:38.365Z,8.39
2023-01-11T15:59:59.549Z,8.41
2023-01-11T16:03:01.219Z,8.43
2023-01-11T16:05:40.886Z,8.45
2023-01-11T16:08:23.978Z,8.41
2023-01-11T16:11:09.623Z,8.39
2023-01-11T16:14:02.701Z,8.36
2023-01-11T16:16:41.336Z,8.37
2023-01-11T16:19:20.981Z,8.37
2023-01-11T16:21:58.935Z,8.38
2023-01-11T16:24:38.382Z,8.41
2023-01-11T16:27:22.220Z,8.42
2023-01-11T16:29:56.983Z,8.40
2023-01-11T16:32:33.459Z,8.42
2023-01-11T16:35:20.269Z,8.38
2023-01-11T16:37:58.226Z,8.31
2023-01-11T16:40:35.974Z,8.34
2023-01-11T16:43:19.966Z,8.34
2023-01-11T16:45:55.121Z,8.34
2023-01-11T16:48:29.848Z,8.32
2023-01-11T16:51:07.789Z,8.27
2023-01-11T16:53:47.053Z,8.29
2023-01-11T16:56:23.903Z,8.31
2023-01-11T16:59:19.150Z,8.32
2023-01-11T17:01:54.840Z,8.30
2023-01-11T17:04:30.873Z,8.25
2023-01-11T17:07:20.564Z,8.28
2023-01-11T17:09:54.582Z,8.31
2023-01-11T17:12:28.727Z,8.32
2023-01-11T17:15:14.378Z,8.29
2023-01-11T17:17:48.371Z,8.27
2023-01-11T17:20:23.820Z,8.28
2023-01-11T17:23:00.251Z,8.41
2023-01-11T17:25:44.248Z,8.34
2023-01-11T17:28:20.497Z,8.32
2023-01-11T17:30:55.263Z,8.37
2023-01-11T17:33:33.052Z,8.34
2023-01-11T17:36:08.336Z,8.32
2023-01-11T17:38:45.413Z,8.26
2023-01-11T17:41:33.967Z,8.27
2023-01-11T17:44:34.952Z,8.30
2023-01-11T17:47:13.306Z,8.32
2023-01-11T17:49:51.561Z,8.28
2023-01-11T17:52:27.519Z,8.27
2023-01-11T17:55:13.946Z,8.27
2023-01-11T17:58:11.093Z,8.26
2023-01-11T18:00:46.478Z,8.24
2023-01-11T18:03:20.237Z,8.19
2023-01-11T18:05:54.195Z,8.15
2023-01-11T18:08:27.847Z,8.18
2023-01-11T18:11:03.061Z,8.14
2023-01-11T18:13:36.729Z,8.13
2023-01-11T18:16:10.776Z,8.15
2023-01-11T18:18:47.327Z,8.10
2023-01-11T18:21:40.959Z,8.10
2023-01-11T18:24:26.341Z,8.11
2023-01-11T18:27:25.573Z,8.11
2023-01-11T18:30:02.537Z,8.05
2023-01-11T18:32:44.241Z,8.09
2023-01-11T18:35:19.330Z,8.07
2023-01-11T18:37:53.479Z,8.09
2023-01-11T18:40:27.142Z,8.07
2023-01-11T18:43:02.535Z,8.08
2023-01-11T18:45:36.270Z,8.13
2023-01-11T18:48:12.477Z,8.20
2023-01-11T18:50:46.500Z,8.22
2023-01-11T18:53:20.336Z,8.20
2023-01-11T18:55:53.972Z,8.18
2023-01-11T18:58:29.525Z,8.11
2023-01-11T19:01:05.647Z,8.07
2023-01-11T19:03:39.735Z,8.04
2023-01-11T19:06:14.026Z,8.00
2023-01-11T19:08:47.960Z,7.97
2023-01-11T19:11:23.981Z,7.98
2023-01-11T19:13:59.541Z,7.93
2023-01-11T19:16:34.025Z,7.90
2023-01-11T19:19:09.076Z,7.93
2023-01-11T19:21:42.820Z,7.89
2023-01-11T19:24:16.558Z,7.86
2023-01-11T19:26:50.913Z,7.91
2023-01-11T19:29:26.616Z,7.91
2023-01-11T19:32:00.337Z,7.98
2023-01-11T19:34:35.335Z,7.97
2023-01-11T19:37:09.350Z,7.98
2023-01-11T19:39:43.421Z,7.98
2023-01-11T19:42:17.211Z,7.94
2023-01-11T19:44:52.750Z,7.89
2023-01-11T19:47:26.471Z,7.90
2023-01-11T19:50:01.162Z,7.87
2023-01-11T19:52:35.061Z,7.87
2023-01-11T19:55:09.822Z,7.88
2023-01-11T19:57:43.417Z,7.86
2023-01-11T20:00:20.544Z,7.88
2023-01-11T20:02:54.239Z,7.86
2023-01-11T20:05:28.058Z,7.83
2023-01-11T20:08:01.865Z,7.82
2023-01-11T20:10:35.828Z,7.82
2023-01-11T20:13:09.909Z,7.81
2023-01-11T20:15:45.216Z,7.79
2023-01-11T20:18:19.145Z,7.83
2023-01-11T20:20:58.711Z,7.78
2023-01-11T20:23:32.912Z,7.79
2023-01-11T20:26:14.778Z,7.78
2023-01-11T20:28:52.117Z,7.80
2023-01-11T20:31:32.943Z,7.78
2023-01-11T20:34:08.170Z,7.79
2023-01-11T20:36:42.683Z,7.77
2023-01-11T20:39:17.581Z,7.76
2023-01-11T20:41:51.597Z,7.76
2023-01-11T20:44:27.846Z,7.77
2023-01-11T20:47:02.969Z,7.77
2023-01-11T20:49:36.612Z,7.79
2023-01-11T20:52:10.589Z,7.77
2023-01-11T20:54:44.457Z,7.72
2023-01-11T20:57:18.407Z,7.66
2023-01-11T20:59:52.234Z,7.64
2023-01-11T21:02:27.376Z,7.57
2023-01-11T21:05:04.400Z,7.52
2023-01-11T21:07:38.351Z,7.47
2023-01-11T21:10:12.921Z,7.43
2023-01-11T21:15:20.093Z,7.42
2023-01-11T21:17:55.244Z,7.38
2023-01-11T21:20:28.846Z,7.42
2023-01-11T21:23:03.305Z,7.47
2023-01-11T21:25:37.377Z,7.46
2023-01-11T21:28:11.187Z,7.45
2023-01-11T21:30:44.919Z,7.52
2023-01-11T21:33:22.267Z,7.49
2023-01-11T21:35:57.428Z,7.45
2023-01-11T21:38:32.300Z,7.52
2023-01-11T21:41:07.916Z,7.67
2023-01-11T21:43:43.005Z,7.72
2023-01-11T21:46:16.564Z,7.73
2023-01-11T21:48:52.017Z,7.68
2023-01-11T21:51:27.109Z,7.70
2023-01-11T21:54:03.857Z,7.75
2023-01-11T21:56:38.144Z,7.78
2023-01-11T21:59:11.966Z,7.79
2023-01-11T22:01:46.914Z,7.82
2023-01-11T22:04:22.801Z,7.84
2023-01-11T22:06:57.499Z,7.83
2023-01-11T22:09:32.896Z,7.79
2023-01-11T22:12:08.115Z,7.81
2023-01-11T22:14:45.541Z,7.84
2023-01-11T22:17:19.668Z,7.89
2023-01-11T22:19:55.113Z,7.90
2023-01-11T22:22:29.136Z,7.90
2023-01-11T22:25:02.981Z,7.89
2023-01-11T22:27:36.625Z,7.94
2023-01-11T22:30:11.715Z,7.96
2023-01-11T22:32:45.463Z,8.01
2023-01-11T22:35:20.734Z,8.00
2023-01-11T22:37:54.378Z,8.05
2023-01-11T22:40:28.161Z,8.08
2023-01-11T22:43:01.914Z,8.01
2023-01-11T22:45:36.065Z,7.92
2023-01-11T22:48:10.425Z,7.95
2023-01-11T22:50:45.668Z,7.91
2023-01-11T22:53:19.373Z,7.93
2023-01-11T22:55:53.179Z,7.88
2023-01-11T22:58:26.668Z,7.87
2023-01-11T23:01:11.221Z,7.92
2023-01-11T23:03:45.942Z,8.01
2023-01-11T23:06:23.917Z,8.05
2023-01-11T23:08:58.399Z,8.07
2023-01-11T23:11:54.692Z,8.14
2023-01-11T23:14:30.669Z,8.17
2023-01-11T23:17:07.186Z,8.22
2023-01-11T23:19:42.419Z,8.12
2023-01-11T23:22:17.902Z,7.91
2023-01-11T23:24:51.547Z,7.93
2023-01-11T23:27:25.364Z,7.88
2023-01-11T23:29:58.982Z,7.86
2023-01-11T23:32:32.895Z,7.85
2023-01-11T23:35:08.952Z,7.84
2023-01-11T23:37:44.126Z,7.83
2023-01-11T23:40:17.924Z,7.83
2023-01-11T23:42:50.745Z,7.86
2023-01-11T23:45:24.370Z,7.84
2023-01-11T23:47:57.176Z,7.85
2023-01-11T23:50:30.681Z,7.85
2023-01-11T23:53:05.994Z,7.82
2023-01-11T23:55:40.147Z,7.86
2023-01-11T23:58:13.939Z,7.89
